createdAt,value
2023-05-07T00:01:04.366Z,72.05
2023-05-07T00:03:33.572Z,72.30
2023-05-07T00:06:03.412Z,72.54
2023-05-07T00:08:32.574Z,72.84
2023-05-07T00:11:00.371Z,72.36
2023-05-07T00:13:28.420Z,72.51
2023-05-07T00:15:57.101Z,72.40
2023-05-07T00:18:25.104Z,73.17
2023-05-07T00:20:52.920Z,72.91
2023-05-07T00:23:23.365Z,74.41
2023-05-07T00:25:59.005Z,73.13
2023-05-07T00:28:29.020Z,73.18
2023-05-07T00:30:57.121Z,72.92
2023-05-07T00:33:24.975Z,72.67
2023-05-07T00:35:53.804Z,72.88
2023-05-07T00:38:22.928Z,74.03
2023-05-07T00:40:51.958Z,73.46
2023-05-07T00:43:20.009Z,73.21
2023-05-07T00:45:48.168Z,72.57
2023-05-07T00:48:18.043Z,72.09
2023-05-07T00:50:48.290Z,72.31
2023-05-07T00:53:16.738Z,73.29
2023-05-07T00:55:46.273Z,72.92
2023-05-07T00:58:14.661Z,72.67
2023-05-07T01:00:42.653Z,74.18
2023-05-07T01:03:10.974Z,74.51
2023-05-07T01:05:39.762Z,73.90
2023-05-07T01:08:09.397Z,74.24
2023-05-07T01:10:37.900Z,75.06
2023-05-07T01:13:09.315Z,75.54
2023-05-07T01:15:38.045Z,73.92
2023-05-07T01:18:08.021Z,73.45
2023-05-07T01:20:38.358Z,74.04
2023-05-07T01:23:10.385Z,74.02
2023-05-07T01:25:38.670Z,73.33
2023-05-07T01:28:07.911Z,74.84
2023-05-07T01:30:39.315Z,74.75
2023-05-07T01:33:13.772Z,75.18
2023-05-07T01:35:47.208Z,75.91
2023-05-07T01:38:17.271Z,76.17
2023-05-07T01:40:45.692Z,75.49
2023-05-07T01:43:14.828Z,75.88
2023-05-07T01:45:43.934Z,74.54
2023-05-07T01:48:15.398Z,73.53
2023-05-07T01:50:50.677Z,73.57
2023-05-07T01:53:19.926Z,74.58
2023-05-07T01:55:48.064Z,75.19
2023-05-07T01:58:16.718Z,74.06
2023-05-07T02:00:45.015Z,74.09
2023-05-07T02:03:15.332Z,74.48
2023-05-07T02:05:43.541Z,74.58
2023-05-07T02:08:11.438Z,74.86
2023-05-07T02:10:42.038Z,75.57
2023-05-07T02:13:12.094Z,75.50
2023-05-07T02:15:41.352Z,75.81
2023-05-07T02:18:10.835Z,75.98
2023-05-07T02:20:39.966Z,76.04
2023-05-07T02:23:12.719Z,75.97
2023-05-07T02:25:42.166Z,76.03
2023-05-07T02:28:11.726Z,76.06
2023-05-07T02:30:41.692Z,75.68
2023-05-07T02:33:14.908Z,75.67
2023-05-07T02:35:43.493Z,76.05
2023-05-07T02:38:12.590Z,75.84
2023-05-07T02:40:43.355Z,76.57
2023-05-07T02:43:14.784Z,78.04
2023-05-07T02:45:44.483Z,77.71
2023-05-07T02:48:12.957Z,77.64
2023-05-07T02:50:40.890Z,77.33
2023-05-07T02:53:08.925Z,76.87
2023-05-07T02:55:37.024Z,76.46
2023-05-07T02:58:06.362Z,77.04
2023-05-07T03:00:34.434Z,77.74
2023-05-07T03:03:03.874Z,78.31
2023-05-07T03:05:33.897Z,78.45
2023-05-07T03:08:02.219Z,78.02
2023-05-07T03:10:30.360Z,78.95
2023-05-07T03:12:58.298Z,77.91
2023-05-07T03:15:27.938Z,77.95
2023-05-07T03:17:55.926Z,78.21
2023-05-07T03:20:24.274Z,76.34
2023-05-07T03:22:52.533Z,75.50
2023-05-07T03:25:21.715Z,74.49
2023-05-07T03:27:51.141Z,75.47
2023-05-07T03:30:19.870Z,76.52
2023-05-07T03:32:49.900Z,78.32
2023-05-07T03:35:18.233Z,77.90
2023-05-07T03:37:46.500Z,74.53
2023-05-07T03:40:14.596Z,75.35
2023-05-07T03:42:42.885Z,74.94
2023-05-07T03:45:12.159Z,74.98
2023-05-07T03:47:40.209Z,76.05
2023-05-07T03:50:12.903Z,76.49
2023-05-07T03:52:43.367Z,76.63
2023-05-07T03:55:16.499Z,75.70
2023-05-07T03:57:45.603Z,75.60
2023-05-07T04:00:15.725Z,75.44
2023-05-07T04:02:44.443Z,76.43
2023-05-07T04:05:16.016Z,77.02
2023-05-07T04:07:44.351Z,77.69
2023-05-07T04:10:14.430Z,77.29
2023-05-07T04:12:43.392Z,76.36
2023-05-07T04:15:12.434Z,77.23
2023-05-07T04:17:40.770Z,78.49
2023-05-07T04:20:11.665Z,79.72
2023-05-07T04:22:41.368Z,78.71
2023-05-07T04:25:11.534Z,78.28
2023-05-07T04:27:40.204Z,78.24
2023-05-07T04:30:10.041Z,78.44
2023-05-07T04:32:38.735Z,77.61
2023-05-07T04:35:08.128Z,79.25
2023-05-07T04:37:37.070Z,77.30
2023-05-07T04:42:36.891Z,76.98
2023-05-07T04:45:08.071Z,76.55
2023-05-07T04:47:38.353Z,76.63
2023-05-07T04:50:11.462Z,75.79
2023-05-07T04:52:39.510Z,76.29
2023-05-07T04:55:14.838Z,74.86
2023-05-07T04:57:44.710Z,75.45
2023-05-07T05:00:15.371Z,74.99
2023-05-07T05:02:45.530Z,74.19
2023-05-07T05:05:16.532Z,74.36
2023-05-07T05:07:44.780Z,74.74
2023-05-07T05:10:17.466Z,73.80
2023-05-07T05:12:47.478Z,74.29
2023-05-07T05:15:15.348Z,74.23
2023-05-07T05:17:43.202Z,73.96
2023-05-07T05:20:13.559Z,73.69
2023-05-07T05:22:41.698Z,74.80
2023-05-07T05:25:10.263Z,73.13
2023-05-07T05:27:41.655Z,73.09
2023-05-07T05:30:11.135Z,73.25
2023-05-07T05:32:39.605Z,73.07
2023-05-07T05:35:08.844Z,72.94
2023-05-07T05:37:39.973Z,72.00
2023-05-07T05:40:09.543Z,70.91
2023-05-07T05:42:39.149Z,70.58
2023-05-07T05:45:14.007Z,72.52
2023-05-07T05:47:42.067Z,70.83
2023-05-07T05:50:13.231Z,69.72
2023-05-07T05:52:43.957Z,70.49
2023-05-07T05:55:11.940Z,69.94
2023-05-07T05:57:41.159Z,70.56
2023-05-07T06:00:12.759Z,69.88
2023-05-07T06:02:41.514Z,69.13
2023-05-07T06:05:10.224Z,68.89
2023-05-07T06:07:38.243Z,69.73
2023-05-07T06:10:07.812Z,69.29
2023-05-07T06:12:35.832Z,68.69
2023-05-07T06:15:03.985Z,69.08
2023-05-07T06:17:33.700Z,67.65
2023-05-07T06:20:01.651Z,67.94
2023-05-07T06:22:29.417Z,66.56
2023-05-07T06:24:57.557Z,66.53
2023-05-07T06:27:25.901Z,65.56
2023-05-07T06:29:53.818Z,67.06
2023-05-07T06:32:22.015Z,65.99
2023-05-07T06:34:52.213Z,66.38
2023-05-07T06:37:20.524Z,66.71
2023-05-07T06:39:48.312Z,66.74
2023-05-07T06:42:18.681Z,66.99
2023-05-07T06:44:46.589Z,67.04
2023-05-07T06:47:16.354Z,66.50
2023-05-07T06:49:46.248Z,67.37
2023-05-07T06:52:16.862Z,67.97
2023-05-07T06:54:46.109Z,67.28
2023-05-07T06:57:18.504Z,67.81
2023-05-07T06:59:49.259Z,68.42
2023-05-07T07:02:19.981Z,67.68
2023-05-07T07:04:48.031Z,67.11
2023-05-07T07:07:17.266Z,66.59
2023-05-07T07:09:46.115Z,67.23
2023-05-07T07:12:13.925Z,66.87
2023-05-07T07:14:43.104Z,65.39
2023-05-07T07:17:10.915Z,64.36
2023-05-07T07:19:40.531Z,63.75
2023-05-07T07:22:08.403Z,63.14
2023-05-07T07:24:39.196Z,64.05
2023-05-07T07:27:07.531Z,62.32
2023-05-07T07:29:35.848Z,61.32
2023-05-07T07:32:04.262Z,62.47
2023-05-07T07:34:32.927Z,62.31
2023-05-07T07:37:06.112Z,61.50
2023-05-07T07:39:34.794Z,59.00
2023-05-07T07:42:04.847Z,58.33
2023-05-07T07:44:32.906Z,58.89
2023-05-07T07:47:02.407Z,57.28
2023-05-07T07:49:30.533Z,57.73
2023-05-07T07:52:00.649Z,54.90
2023-05-07T07:54:28.699Z,55.08
2023-05-07T07:56:56.825Z,56.06
2023-05-07T07:59:26.647Z,55.64
2023-05-07T08:01:56.803Z,55.44
2023-05-07T08:04:26.281Z,54.32
2023-05-07T08:06:55.475Z,55.64
2023-05-07T08:09:26.248Z,54.62
2023-05-07T08:11:57.548Z,54.77
2023-05-07T08:14:29.446Z,54.30
2023-05-07T08:16:58.274Z,53.62
2023-05-07T08:19:26.332Z,52.41
2023-05-07T08:21:57.272Z,53.86
2023-05-07T08:24:27.196Z,53.55
2023-05-07T08:26:55.488Z,54.95
2023-05-07T08:29:23.603Z,53.64
2023-05-07T08:31:57.260Z,53.95
2023-05-07T08:34:28.785Z,53.52
2023-05-07T08:36:58.126Z,51.88
2023-05-07T08:39:26.355Z,53.03
2023-05-07T08:42:03.029Z,53.97
2023-05-07T08:44:36.566Z,54.69
2023-05-07T08:47:09.713Z,54.03
2023-05-07T08:49:40.431Z,53.42
2023-05-07T08:52:12.384Z,52.17
2023-05-07T08:54:41.427Z,53.68
2023-05-07T08:57:10.158Z,52.41
2023-05-07T08:59:48.453Z,52.04
2023-05-07T09:02:21.481Z,51.77
2023-05-07T09:04:49.351Z,52.42
2023-05-07T09:07:19.821Z,52.38
2023-05-07T09:09:50.532Z,52.71
2023-05-07T09:12:21.445Z,51.64
2023-05-07T09:14:53.931Z,50.73
2023-05-07T09:17:24.969Z,51.22
2023-05-07T09:19:59.411Z,49.92
2023-05-07T09:22:27.870Z,51.53
2023-05-07T09:24:57.778Z,51.17
2023-05-07T09:27:28.552Z,51.57
2023-05-07T09:29:57.530Z,51.98
2023-05-07T09:32:28.224Z,50.97
2023-05-07T09:34:56.931Z,51.59
2023-05-07T09:37:27.263Z,51.19
2023-05-07T09:39:56.836Z,51.02
2023-05-07T09:42:28.885Z,51.97
2023-05-07T09:45:03.537Z,50.15
2023-05-07T09:47:38.514Z,50.05
2023-05-07T09:50:11.908Z,48.91
2023-05-07T09:52:43.241Z,48.73
2023-05-07T09:55:15.670Z,48.75
2023-05-07T09:57:54.011Z,49.85
2023-05-07T10:00:23.988Z,50.33
2023-05-07T10:02:55.374Z,49.13
2023-05-07T10:05:23.915Z,48.72
2023-05-07T10:07:53.316Z,47.68
2023-05-07T10:10:22.512Z,46.93
2023-05-07T10:12:51.820Z,47.71
2023-05-07T10:15:22.379Z,48.36
2023-05-07T10:17:55.732Z,47.88
2023-05-07T10:20:23.987Z,49.07
2023-05-07T10:22:59.057Z,49.76
2023-05-07T10:25:30.848Z,49.48
2023-05-07T10:28:05.643Z,49.67
2023-05-07T10:30:42.171Z,48.64
2023-05-07T10:33:14.208Z,47.61
2023-05-07T10:35:45.403Z,46.46
2023-05-07T10:38:18.662Z,47.23
2023-05-07T10:40:48.258Z,46.65
2023-05-07T10:43:21.659Z,47.38
2023-05-07T10:46:14.268Z,47.82
2023-05-07T10:49:18.691Z,47.62
2023-05-07T10:52:16.885Z,46.60
2023-05-07T10:54:46.353Z,44.66
2023-05-07T10:57:37.754Z,46.01
2023-05-07T11:00:38.885Z,45.64
2023-05-07T11:03:09.522Z,47.41
2023-05-07T11:05:39.190Z,46.14
2023-05-07T11:08:08.609Z,44.98
2023-05-07T11:10:53.766Z,45.18
2023-05-07T11:13:48.689Z,45.13
2023-05-07T11:16:21.289Z,45.47
2023-05-07T11:18:54.265Z,43.45
2023-05-07T11:21:38.609Z,42.22
2023-05-07T11:24:07.809Z,42.30
2023-05-07T11:26:49.966Z,41.84
2023-05-07T11:29:22.578Z,40.32
2023-05-07T11:31:53.617Z,41.05
2023-05-07T11:34:28.105Z,40.46
2023-05-07T11:36:56.320Z,40.48
2023-05-07T11:39:29.269Z,41.00
2023-05-07T11:41:59.015Z,39.75
2023-05-07T11:44:44.956Z,39.23
2023-05-07T11:47:12.997Z,40.33
2023-05-07T11:49:45.477Z,39.69
2023-05-07T11:52:16.735Z,39.59
2023-05-07T11:54:53.927Z,39.68
2023-05-07T11:57:22.497Z,39.67
2023-05-07T11:59:54.766Z,38.41
2023-05-07T12:02:23.272Z,40.34
2023-05-07T12:04:53.180Z,39.52
2023-05-07T12:07:21.584Z,38.78
2023-05-07T12:09:51.533Z,38.54
2023-05-07T12:12:20.689Z,37.71
2023-05-07T12:14:50.008Z,36.89
2023-05-07T12:17:20.649Z,36.30
2023-05-07T12:19:49.454Z,37.61
2023-05-07T12:22:24.316Z,37.47
2023-05-07T12:24:59.944Z,36.64
2023-05-07T12:27:28.904Z,36.65
2023-05-07T12:30:00.599Z,36.64
2023-05-07T12:32:31.561Z,36.19
2023-05-07T12:35:00.248Z,35.67
2023-05-07T12:37:32.387Z,37.06
2023-05-07T12:40:08.703Z,36.77
2023-05-07T12:42:38.927Z,35.49
2023-05-07T12:45:20.110Z,36.94
2023-05-07T12:47:49.754Z,36.55
2023-05-07T12:50:22.093Z,38.41
2023-05-07T12:52:54.953Z,38.32
2023-05-07T12:55:29.180Z,37.87
2023-05-07T12:58:03.989Z,36.75
2023-05-07T13:00:36.879Z,36.33
2023-05-07T13:03:09.158Z,36.10
2023-05-07T13:05:37.937Z,37.13
2023-05-07T13:08:07.663Z,35.82
2023-05-07T13:10:36.869Z,35.76
2023-05-07T13:13:05.874Z,36.96
2023-05-07T13:15:35.172Z,36.75
2023-05-07T13:18:03.800Z,36.60
2023-05-07T13:20:32.184Z,37.35
2023-05-07T13:23:03.788Z,38.53
2023-05-07T13:25:33.651Z,37.75
2023-05-07T13:28:11.501Z,37.66
2023-05-07T13:30:42.352Z,38.67
2023-05-07T13:33:12.499Z,38.96
2023-05-07T13:35:45.518Z,38.53
2023-05-07T13:38:14.304Z,39.40
2023-05-07T13:40:46.500Z,39.45
2023-05-07T13:43:22.690Z,37.85
2023-05-07T13:45:58.784Z,37.80
2023-05-07T13:48:29.863Z,36.49
2023-05-07T13:50:58.277Z,35.47
2023-05-07T13:53:28.244Z,36.04
2023-05-07T13:55:58.561Z,35.24
2023-05-07T13:58:28.855Z,34.26
2023-05-07T14:01:00.343Z,33.64
2023-05-07T14:03:29.547Z,33.96
2023-05-07T14:06:03.568Z,34.45
2023-05-07T14:08:32.511Z,32.48
2023-05-07T14:11:05.068Z,34.28
2023-05-07T14:13:55.138Z,33.35
2023-05-07T14:16:25.027Z,35.87
2023-05-07T14:19:01.112Z,37.54
2023-05-07T14:21:30.118Z,38.75
2023-05-07T14:24:06.326Z,40.30
2023-05-07T14:26:41.819Z,39.23
2023-05-07T14:29:29.103Z,40.04
2023-05-07T14:31:58.394Z,40.33
2023-05-07T14:34:30.298Z,40.19
2023-05-07T14:37:12.721Z,40.73
2023-05-07T14:39:50.712Z,40.19
2023-05-07T14:42:25.055Z,40.30
2023-05-07T14:44:55.732Z,39.38
2023-05-07T14:47:32.296Z,39.85
2023-05-07T14:50:02.145Z,39.97
2023-05-07T14:52:40.025Z,40.75
2023-05-07T14:55:08.767Z,41.06
2023-05-07T14:57:39.450Z,40.90
2023-05-07T15:00:15.444Z,41.48
2023-05-07T15:02:45.179Z,41.00
2023-05-07T15:05:13.576Z,41.84
2023-05-07T15:07:41.915Z,40.33
2023-05-07T15:10:16.925Z,39.80
2023-05-07T15:12:47.727Z,39.77
2023-05-07T15:15:16.764Z,39.75
2023-05-07T15:17:56.651Z,39.31
2023-05-07T15:20:24.688Z,39.73
2023-05-07T15:22:53.484Z,40.83
2023-05-07T15:25:23.142Z,40.96
2023-05-07T15:27:56.999Z,41.47
2023-05-07T15:30:43.561Z,41.25
2023-05-07T15:33:13.028Z,40.93
2023-05-07T15:35:42.662Z,41.33
2023-05-07T15:38:10.639Z,41.91
2023-05-07T15:40:42.798Z,42.21
2023-05-07T15:43:17.799Z,42.45
2023-05-07T15:45:47.174Z,42.64
2023-05-07T15:48:16.957Z,42.76
2023-05-07T15:50:50.078Z,43.04
2023-05-07T15:53:18.701Z,42.52
2023-05-07T15:55:49.638Z,42.81
2023-05-07T15:58:22.375Z,42.89
2023-05-07T16:00:50.956Z,43.02
2023-05-07T16:03:22.639Z,43.38
2023-05-07T16:05:51.532Z,43.35
2023-05-07T16:08:20.846Z,43.34
2023-05-07T16:10:51.464Z,43.59
2023-05-07T16:13:22.199Z,43.62
2023-05-07T16:15:51.471Z,44.01
2023-05-07T16:18:27.097Z,43.90
2023-05-07T16:20:56.344Z,44.25
2023-05-07T16:23:24.700Z,44.83
2023-05-07T16:25:53.865Z,44.79
2023-05-07T16:28:25.946Z,45.06
2023-05-07T16:30:55.702Z,44.80
2023-05-07T16:33:27.491Z,44.73
2023-05-07T16:35:58.060Z,45.18
2023-05-07T16:38:26.960Z,45.06
2023-05-07T16:40:54.865Z,45.27
2023-05-07T16:43:25.983Z,45.04
2023-05-07T16:45:54.790Z,45.74
2023-05-07T16:48:25.969Z,45.55
2023-05-07T16:50:55.642Z,45.89
2023-05-07T16:53:24.602Z,46.25
2023-05-07T16:55:56.460Z,46.48
2023-05-07T16:58:29.844Z,46.11
2023-05-07T17:01:00.857Z,45.93
2023-05-07T17:03:32.026Z,46.40
2023-05-07T17:06:01.915Z,47.33
2023-05-07T17:08:30.125Z,46.60
2023-05-07T17:10:58.949Z,46.66
2023-05-07T17:13:36.780Z,47.06
2023-05-07T17:16:10.273Z,47.41
2023-05-07T17:18:44.546Z,56.08
2023-05-07T17:21:12.862Z,60.91
2023-05-07T17:23:41.794Z,61.70
2023-05-07T17:26:14.366Z,63.67
2023-05-07T17:28:48.735Z,64.39
2023-05-07T17:31:18.715Z,65.59
2023-05-07T17:33:48.278Z,67.28
2023-05-07T17:36:21.879Z,68.86
2023-05-07T17:38:50.148Z,69.99
2023-05-07T17:41:23.636Z,70.53
2023-05-07T17:43:52.929Z,71.00
2023-05-07T17:46:22.017Z,71.07
2023-05-07T17:48:54.741Z,71.49
2023-05-07T17:51:26.413Z,71.84
2023-05-07T17:53:54.648Z,72.28
2023-05-07T17:56:23.882Z,71.64
2023-05-07T17:58:59.059Z,71.93
2023-05-07T18:01:33.442Z,72.70
2023-05-07T18:04:03.681Z,73.72
2023-05-07T18:06:32.020Z,73.30
2023-05-07T18:09:00.383Z,74.10
2023-05-07T18:11:30.023Z,74.42
2023-05-07T18:14:00.692Z,74.36
2023-05-07T18:16:30.089Z,73.98
2023-05-07T18:18:59.249Z,74.12
2023-05-07T18:21:27.255Z,73.67
2023-05-07T18:23:57.811Z,73.29
2023-05-07T18:26:30.758Z,73.98
2023-05-07T18:29:00.237Z,73.96
2023-05-07T18:31:31.718Z,73.95
2023-05-07T18:34:03.247Z,73.49
2023-05-07T18:36:32.545Z,74.40
2023-05-07T18:39:01.934Z,75.63
2023-05-07T18:41:30.839Z,77.60
2023-05-07T18:44:00.952Z,77.77
2023-05-07T18:46:30.222Z,78.78
2023-05-07T18:48:59.888Z,77.73
2023-05-07T18:51:30.563Z,78.29
2023-05-07T18:54:02.114Z,79.31
2023-05-07T18:56:31.218Z,79.38
2023-05-07T18:59:01.269Z,79.64
2023-05-07T19:01:29.507Z,80.27
2023-05-07T19:03:57.993Z,79.94
2023-05-07T19:06:27.804Z,80.10
2023-05-07T19:08:57.230Z,79.98
2023-05-07T19:11:26.894Z,79.81
2023-05-07T19:13:54.887Z,80.29
2023-05-07T19:16:24.323Z,80.20
2023-05-07T19:18:53.012Z,79.81
2023-05-07T19:21:24.610Z,79.45
2023-05-07T19:23:53.859Z,79.09
2023-05-07T19:26:21.922Z,79.20
2023-05-07T19:31:28.001Z,78.85
2023-05-07T19:33:57.390Z,78.69
2023-05-07T19:36:25.123Z,78.90
2023-05-07T19:38:54.587Z,78.29
2023-05-07T19:41:23.193Z,78.08
2023-05-07T19:43:54.406Z,77.75
2023-05-07T19:46:22.798Z,78.51
2023-05-07T19:48:52.777Z,78.35
2023-05-07T19:51:21.876Z,78.27
2023-05-07T19:53:51.743Z,78.00
2023-05-07T19:56:19.703Z,78.55
2023-05-07T19:58:48.962Z,79.00
2023-05-07T20:01:17.277Z,77.09
2023-05-07T20:03:48.741Z,78.08
2023-05-07T20:06:23.249Z,78.12
2023-05-07T20:08:52.235Z,77.61
2023-05-07T20:11:24.391Z,78.24
2023-05-07T20:13:52.175Z,77.49
2023-05-07T20:16:19.984Z,77.75
2023-05-07T20:18:48.636Z,78.72
2023-05-07T20:21:16.705Z,78.84
2023-05-07T20:23:47.758Z,80.17
2023-05-07T20:26:17.183Z,81.38
2023-05-07T20:28:45.249Z,83.04
2023-05-07T20:31:13.090Z,83.04
2023-05-07T20:33:41.122Z,83.66
2023-05-07T20:36:10.444Z,84.21
2023-05-07T20:38:38.349Z,84.62
2023-05-07T20:41:09.769Z,84.97
2023-05-07T20:43:39.708Z,85.44
2023-05-07T20:46:11.928Z,85.26
2023-05-07T20:48:39.722Z,85.66
2023-05-07T20:51:12.244Z,84.43
2023-05-07T20:53:47.463Z,83.66
2023-05-07T20:56:17.963Z,84.08
2023-05-07T20:58:46.172Z,82.80
2023-05-07T21:01:18.948Z,84.86
2023-05-07T21:03:53.727Z,85.25
2023-05-07T21:06:24.117Z,85.59
2023-05-07T21:08:55.122Z,86.49
2023-05-07T21:11:25.496Z,88.54
2023-05-07T21:13:57.308Z,89.49
2023-05-07T21:16:25.272Z,90.50
2023-05-07T21:18:59.284Z,89.02
2023-05-07T21:21:28.089Z,89.36
2023-05-07T21:23:56.208Z,89.42
2023-05-07T21:26:25.922Z,90.66
2023-05-07T21:28:54.268Z,91.04
2023-05-07T21:31:22.206Z,91.06
2023-05-07T21:33:54.006Z,91.46
2023-05-07T21:36:22.299Z,88.85
2023-05-07T21:38:50.430Z,88.41
2023-05-07T21:41:21.791Z,89.95
2023-05-07T21:43:51.283Z,85.01
2023-05-07T21:46:21.295Z,87.92
2023-05-07T21:48:49.400Z,86.91
2023-05-07T21:51:21.469Z,82.36
2023-05-07T21:53:50.129Z,80.54
2023-05-07T21:56:20.262Z,79.40
2023-05-07T21:58:48.504Z,77.32
2023-05-07T22:01:18.320Z,76.73
2023-05-07T22:03:46.613Z,76.87
2023-05-07T22:06:18.012Z,77.02
2023-05-07T22:08:46.496Z,76.55
2023-05-07T22:11:14.620Z,75.65
2023-05-07T22:13:43.652Z,75.63
2023-05-07T22:16:12.948Z,75.78
2023-05-07T22:18:49.422Z,75.48
2023-05-07T22:21:17.769Z,74.42
2023-05-07T22:23:46.695Z,74.46
2023-05-07T22:26:16.175Z,74.43
2023-05-07T22:28:44.357Z,74.70
2023-05-07T22:31:12.779Z,74.55
2023-05-07T22:33:41.089Z,74.33
2023-05-07T22:36:11.514Z,72.83
2023-05-07T22:38:39.499Z,72.51
2023-05-07T22:41:08.501Z,72.08
2023-05-07T22:43:36.423Z,72.54
2023-05-07T22:46:05.373Z,72.79
2023-05-07T22:48:34.232Z,73.13
2023-05-07T22:51:03.529Z,72.74
2023-05-07T22:53:33.303Z,74.20
2023-05-07T22:56:07.753Z,73.82
2023-05-07T22:58:36.808Z,72.83
2023-05-07T23:01:05.246Z,73.30
2023-05-07T23:03:33.785Z,74.59
2023-05-07T23:06:01.934Z,75.72
2023-05-07T23:08:30.171Z,73.77
2023-05-07T23:11:00.801Z,73.98
2023-05-07T23:13:29.192Z,73.83
2023-05-07T23:15:59.289Z,74.45
2023-05-07T23:18:28.264Z,73.90
2023-05-07T23:20:56.714Z,74.40
2023-05-07T23:23:24.795Z,73.31
2023-05-07T23:25:53.798Z,73.88
2023-05-07T23:28:23.253Z,74.30
2023-05-07T23:30:51.482Z,74.83
2023-05-07T23:33:20.225Z,74.58
2023-05-07T23:35:51.217Z,75.29
2023-05-07T23:38:21.576Z,74.48
2023-05-07T23:40:58.327Z,76.69
2023-05-07T23:43:27.591Z,75.41
2023-05-07T23:45:55.451Z,75.54
2023-05-07T23:48:25.090Z,74.96
2023-05-07T23:50:53.634Z,75.14
2023-05-07T23:53:22.927Z,75.05
2023-05-07T23:55:51.826Z,74.59
2023-05-07T23:58:21.061Z,74.85
